Latest Weather Observations for Laverton

IDV60901

Issued at 4:41 am EST Sunday 31 May 2015 (issued every 10 minutes, with the page automatically refreshed every 10 minutes)

About weather observations | Map of Melbourne area stations | Latest observations for Melbourne area | Other Formats
Station Details ID: 087031 Name: LAVERTON RAAF Lat: -37.86 Lon: 144.76 Height: 20.1 m
Data from the previous 72 hours. | See also: Recent months at Laverton
Date/Time
EST
Tmp

°C
App
Tmp
°C
Dew
Point
°C
Rel
Hum
%
Delta-T

°C
Wind Press
QNH
hPa
Press
MSL
hPa
Rain
since
9 am
mm
Dir
 
Spd
km/h
Gust
km/h
Spd
kts
Gust
kts
31/04:30am 11.6 6.6 6.3 70 2.5 NNW 22 33 12 18 1013.2 1013.2 0.0
31/04:00am 10.6 7.2 6.0 73 2.1 N 13 19 7 10 1013.2 1013.2 0.0
31/03:30am 11.4 7.2 5.9 69 2.6 NNW 17 22 9 12 1013.4 1013.4 0.0
31/03:00am 11.0 6.6 6.6 74 2.1 NNW 19 24 10 13 1013.4 1013.4 0.0
31/02:30am 11.4 6.6 7.3 76 2.0 NW 22 28 12 15 1013.6 1013.6 0.0
31/02:00am 10.6 6.0 8.0 84 1.3 NW 22 28 12 15 1014.1 1014.1 0.0
31/01:30am 10.3 6.0 7.9 85 1.2 NW 20 26 11 14 1014.3 1014.3 0.0
31/01:00am 11.1 6.5 8.3 83 1.4 NW 22 30 12 16 1014.5 1014.5 0.0
31/12:30am 10.8 7.2 8.2 84 1.3 NW 17 22 9 12 1014.7 1014.7 0.0
31/12:00am 11.7 7.7 8.9 83 1.4 NW 20 39 11 21 1014.9 1014.9 0.0
 
Date/Time
EST
Tmp

°C
App
Tmp
°C
Dew
Point
°C
Rel
Hum
%
Delta-T

°C
Wind Press
QNH
hPa
Press
MSL
hPa
Rain
since
9 am
mm
Dir
 
Spd
km/h
Gust
km/h
Spd
kts
Gust
kts
30/11:58pm 11.3 7.8 8.9 85 1.2 NW 17 35 9 19 1014.9 1014.9 0.0
30/11:30pm 9.9 7.9 7.3 84 1.2 WNW 7 15 4 8 1015.3 1015.3 0.0
30/11:00pm 8.9 6.8 6.0 82 1.3 NW 6 9 3 5 1015.6 1015.6 0.0
30/10:30pm 9.7 6.9 6.8 82 1.4 N 11 17 6 9 1015.6 1015.6 0.0
30/10:00pm 10.0 7.5 6.7 80 1.5 NNE 9 13 5 7 1015.9 1015.9 0.0
30/09:30pm 10.3 8.3 6.3 76 1.9 N 6 9 3 5 1016.2 1016.2 0.0
30/09:00pm 11.7 8.6 7.2 74 2.2 NNW 13 19 7 10 1016.1 1016.1 0.0
30/08:30pm 12.1 7.8 7.2 72 2.4 NNW 19 22 10 12 1016.2 1016.2 0.0
30/08:00pm 12.6 8.2 7.3 70 2.6 NNW 20 30 11 16 1016.3 1016.3 0.0
30/07:30pm 12.8 8.5 7.0 68 2.8 NNW 19 28 10 15 1016.2 1016.2 0.0
30/07:00pm 13.0 8.7 7.2 68 2.8 NNW 19 28 10 15 1016.3 1016.3 0.0
30/06:30pm 13.4 9.4 6.7 64 3.2 NNW 17 24 9 13 1016.3 1016.3 0.0
30/06:00pm 13.5 9.5 6.8 64 3.2 NNW 17 24 9 13 1016.4 1016.4 0.0
30/05:30pm 12.7 8.7 6.7 67 2.9 NW 17 20 9 11 1016.1 1016.1 0.0
30/05:00pm 14.2 9.7 7.0 62 3.5 NW 20 32 11 17 1016.0 1016.0 0.0
30/04:30pm 14.9 9.6 7.0 59 3.9 WNW 24 33 13 18 1015.9 1015.9 0.0
30/04:00pm 15.5 9.4 6.5 55 4.4 WNW 28 44 15 24 1015.9 1015.9 0.0
30/03:30pm 15.9 9.7 6.3 53 4.7 WNW 28 41 15 22 1015.9 1015.9 0.0
30/03:00pm 16.1 9.2 6.3 52 4.8 NW 32 44 17 24 1015.8 1015.8 0.0
30/02:52pm 16.9 10.1 6.7 51 5.0 WNW 32 50 17 27 1015.9 1015.9 0.0
30/02:30pm 16.8 7.7 6.0 49 5.3 NW 43 57 23 31 1015.9 1015.9 0.0
30/02:06pm 16.6 8.6 5.6 48 5.3 NW 37 56 20 30 1016.0 1016.0 0.0
30/02:00pm 16.4 8.1 6.0 50 5.0 NW 39 52 21 28 1016.0 1016.0 0.0
30/01:30pm 16.9 8.5 5.8 48 5.4 NW 39 56 21 30 1016.4 1016.4 0.0
30/01:00pm 16.7 7.9 5.6 48 5.3 NW 41 56 22 30 1016.8 1016.8 0.0
30/12:50pm 16.5 9.2 5.5 48 5.3 NW 33 56 18 30 1016.8 1016.8 0.0
30/12:30pm 16.4 9.6 5.1 47 5.4 NW 30 41 16 22 1017.2 1017.2 0.0
30/12:00pm 15.9 7.4 5.2 49 5.1 NW 39 52 21 28 1017.5 1017.5 0.0
30/11:47am 16.1 8.0 5.4 49 5.1 NW 37 56 20 30 1017.8 1017.8 0.0
30/11:30am 15.5 6.5 4.8 49 5.0 NW 41 54 22 29 1018.2 1018.2 0.0
30/11:00am 15.2 7.8 4.9 50 4.8 NW 33 43 18 23 1018.8 1018.8 0.0
30/10:30am 14.8 8.4 5.3 53 4.5 NW 28 41 15 22 1019.3 1019.3 0.0
30/10:00am 14.1 7.0 5.7 57 4.0 NW 32 46 17 25 1019.5 1019.5 0.0
30/09:30am 13.4 7.9 5.8 60 3.6 NNW 24 35 13 19 1019.8 1019.8 0.0
30/09:00am 11.8 8.5 6.3 69 2.6 NNE 13 17 7 9 1020.1 1020.1 0.0
30/08:30am 10.9 6.7 5.9 71 2.3 NNE 17 22 9 12 1020.1 1020.1 0.0
30/08:00am 9.9 6.4 5.5 74 2.0 NNE 13 17 7 9 1020.1 1020.1 0.0
30/07:30am 9.2 5.7 5.4 77 1.7 N 13 19 7 10 1020.1 1020.1 0.0
30/07:00am 8.8 5.3 5.4 79 1.5 NNW 13 19 7 10 1020.0 1020.0 0.0
30/06:30am 8.8 5.3 5.5 80 1.5 NNW 13 17 7 9 1020.2 1020.2 0.0
30/06:00am 9.5 5.3 5.7 77 1.7 NNW 17 22 9 12 1020.1 1020.1 0.0
30/05:30am 10.1 6.0 6.3 77 1.8 NNW 17 20 9 11 1019.8 1019.8 0.0
30/05:00am 10.5 6.5 6.6 77 1.8 NNW 17 22 9 12 1019.7 1019.7 0.0
30/04:30am 9.8 6.5 6.3 79 1.6 NNW 13 17 7 9 1019.8 1019.8 0.0
30/04:00am 9.9 6.6 6.6 80 1.5 NNW 13 17 7 9 1020.0 1020.0 0.0
30/03:30am 10.6 7.4 6.7 77 1.8 NNW 13 19 7 10 1020.2 1020.2 0.0
30/03:00am 10.4 7.6 7.1 80 1.6 NNW 11 15 6 8 1020.4 1020.4 0.0
30/02:30am 10.4 7.6 6.9 79 1.7 NNW 11 17 6 9 1020.5 1020.5 0.0
30/02:00am 10.1 6.8 6.4 78 1.7 NNW 13 17 7 9 1020.7 1020.7 0.0
30/01:30am 10.5 6.4 6.3 75 2.0 NNW 17 20 9 11 1020.9 1020.9 0.0
30/01:00am 11.1 6.9 5.8 70 2.4 NNW 17 22 9 12 1021.1 1021.1 0.0
30/12:30am 11.3 6.8 6.0 70 2.5 NNW 19 24 10 13 1021.4 1021.4 0.0
30/12:00am 11.0 7.2 6.0 71 2.3 NNW 15 20 8 11 1021.8 1021.8 0.0
 
Date/Time
EST
Tmp

°C
App
Tmp
°C
Dew
Point
°C
Rel
Hum
%
Delta-T

°C
Wind Press
QNH
hPa
Press
MSL
hPa
Rain
since
9 am
mm
Dir
 
Spd
km/h
Gust
km/h
Spd
kts
Gust
kts
29/11:30pm 11.6 7.8 5.9 68 2.7 NW 15 20 8 11 1021.9 1021.9 0.0
29/11:00pm 11.8 7.6 5.7 66 2.8 NNW 17 22 9 12 1021.9 1021.9 0.0
29/10:30pm 12.2 7.6 5.8 65 3.0 NNW 19 24 10 13 1021.9 1021.9 0.0
29/10:00pm 12.2 8.0 5.6 64 3.1 NNW 17 22 9 12 1021.9 1021.9 0.0
29/09:30pm 12.5 7.9 5.4 62 3.3 NNW 19 24 10 13 1021.8 1021.8 0.0
29/09:00pm 12.6 8.0 5.8 63 3.2 NNW 19 28 10 15 1021.7 1021.7 0.0
29/08:30pm 12.1 8.3 5.7 65 3.0 NNW 15 22 8 12 1021.9 1021.9 0.0
29/08:00pm 12.0 8.5 5.4 64 3.0 NNW 13 19 7 10 1021.9 1021.9 0.0
29/07:30pm 12.1 8.2 5.5 64 3.1 NNW 15 20 8 11 1021.9 1021.9 0.0
29/07:00pm 11.9 8.4 5.3 64 3.0 NNW 13 19 7 10 1021.7 1021.7 0.0
29/06:30pm 12.1 8.9 5.3 63 3.1 NNW 11 17 6 9 1021.4 1021.4 0.0
29/06:00pm 12.3 8.3 5.0 61 3.3 NW 15 19 8 10 1021.3 1021.3 0.0
29/05:30pm 13.2 8.9 5.1 58 3.8 NW 17 20 9 11 1021.0 1021.0 0.0
29/05:00pm 13.9 9.5 4.8 54 4.2 NW 17 24 9 13 1021.0 1021.0 0.0
29/04:30pm 13.9 9.5 5.0 55 4.1 NW 17 24 9 13 1020.9 1020.9 0.0
29/04:00pm 14.6 9.5 4.3 50 4.7 WNW 20 30 11 16 1020.7 1020.7 0.0
29/03:30pm 14.8 9.9 5.1 52 4.6 WNW 20 28 11 15 1020.7 1020.7 0.0
29/03:00pm 14.7 9.9 5.5 54 4.3 NW 20 28 11 15 1020.8 1020.8 0.0
29/02:30pm 14.8 10.1 5.9 55 4.3 WNW 20 26 11 14 1020.7 1020.7 0.0
29/02:00pm 14.7 10.4 5.2 53 4.5 W 17 28 9 15 1020.7 1020.7 0.0
29/01:30pm 14.3 9.4 5.1 54 4.3 W 20 30 11 16 1020.9 1020.9 0.0
29/01:00pm 14.3 9.4 5.1 54 4.3 WNW 20 28 11 15 1020.9 1020.9 0.0
29/12:30pm 14.5 9.1 4.5 51 4.6 W 22 30 12 16 1021.2 1021.2 0.0
29/12:00pm 14.6 8.9 4.9 52 4.5 WNW 24 33 13 18 1021.5 1021.5 0.0
29/11:30am 14.3 9.2 5.9 57 4.0 WNW 22 32 12 17 1021.8 1021.8 0.0
29/11:00am 14.6 9.7 6.7 59 3.8 WNW 22 30 12 16 1022.2 1022.2 0.0
29/10:30am 13.5 8.4 6.1 61 3.5 WNW 22 28 12 15 1022.1 1022.1 0.0
29/10:00am 12.9 7.9 6.3 64 3.1 WNW 22 32 12 17 1022.0 1022.0 0.0
29/09:30am 12.2 7.6 6.5 68 2.7 NW 20 30 11 16 1021.8 1021.8 0.0
29/09:00am 11.2 6.5 6.1 71 2.4 NW 20 28 11 15 1021.7 1021.7 0.0
29/08:30am 9.2 5.7 5.4 77 1.7 NW 13 17 7 9 1021.6 1021.6 0.0
29/08:00am 7.3 4.2 3.7 78 1.5 NNW 9 11 5 6 1021.2 1021.2 0.0
29/07:30am 7.7 4.3 3.9 77 1.6 NNW 11 17 6 9 1020.9 1020.9 0.0
29/07:00am 8.1 4.4 4.3 77 1.7 NNW 13 17 7 9 1020.6 1020.6 0.0
29/06:30am 8.5 4.5 4.7 77 1.7 NNW 15 17 8 9 1020.3 1020.3 0.0
29/06:00am 7.9 4.2 4.5 79 1.5 NNW 13 17 7 9 1020.1 1020.1 0.0
29/05:30am 7.4 4.1 4.4 81 1.3 N 11 15 6 8 1019.9 1019.9 0.0
29/05:00am 6.8 3.4 4.1 83 1.2 NNW 11 15 6 8 1019.3 1019.3 0.0
29/04:30am 6.3 2.4 3.5 82 1.2 NW 13 17 7 9 1019.2 1019.2 0.0
29/04:00am 8.6 5.6 4.2 74 1.9 NNW 9 13 5 7 1019.2 1019.2 0.0
29/03:30am 8.7 5.4 4.3 74 1.9 NNW 11 15 6 8 1019.0 1019.0 0.0
29/03:00am 9.0 6.7 4.6 74 1.9 NNW 6 9 3 5 1018.9 1018.9 0.0
29/02:30am 9.4 6.1 4.8 73 2.1 NNW 11 13 6 7 1018.7 1018.7 0.0
29/02:00am 10.8 7.0 5.6 70 2.4 NW 15 19 8 10 1018.4 1018.4 0.0
29/01:30am 11.6 7.3 5.3 65 2.9 WNW 17 24 9 13 1018.1 1018.1 0.0
29/01:00am 12.6 8.5 6.2 65 3.0 WNW 17 24 9 13 1018.0 1018.0 0.0
29/12:30am 12.5 8.6 7.0 69 2.6 WNW 17 20 9 11 1017.8 1017.8 0.0
29/12:00am 12.9 9.2 7.8 71 2.5 WNW 17 20 9 11 1017.6 1017.6 0.0
 
Date/Time
EST
Tmp

°C
App
Tmp
°C
Dew
Point
°C
Rel
Hum
%
Delta-T

°C
Wind Press
QNH
hPa
Press
MSL
hPa
Rain
since
9 am
mm
Dir
 
Spd
km/h
Gust
km/h
Spd
kts
Gust
kts
28/11:30pm 12.9 10.0 8.2 73 2.3 WNW 13 17 7 9 1017.5 1017.5 0.0
28/11:00pm 13.1 9.5 8.2 72 2.4 WNW 17 24 9 13 1017.3 1017.3 0.0
28/10:30pm 12.9 10.1 8.6 75 2.1 NW 13 17 7 9 1017.2 1017.2 0.0
28/10:00pm 13.0 11.0 8.7 75 2.1 W 9 13 5 7 1017.0 1017.0 0.0
28/09:30pm 13.3 9.9 9.0 75 2.2 W 17 26 9 14 1017.0 1017.0 0.0
28/09:00pm 13.3 9.6 10.3 82 1.6 WSW 20 26 11 14 1016.5 1016.5 0.0
28/08:30pm 14.3 10.5 9.9 75 2.3 WSW 20 28 11 15 1016.3 1016.3 0.0
28/08:00pm 14.7 10.1 9.5 71 2.7 WSW 24 35 13 19 1015.7 1015.7 0.0
28/07:30pm 16.0 12.6 7.7 58 4.2 WNW 15 30 8 16 1015.3 1015.3 0.0
28/07:00pm 16.7 13.7 7.9 56 4.4 N 13 20 7 11 1014.1 1014.1 0.0
28/06:30pm 17.1 13.7 7.5 53 4.8 N 15 20 8 11 1013.7 1013.7 0.0
28/06:00pm 17.1 13.7 7.5 53 4.8 N 15 22 8 12 1013.5 1013.5 0.0
28/05:30pm 17.5 14.4 7.3 51 5.1 N 13 19 7 10 1013.3 1013.3 0.0
28/05:00pm 18.1 13.9 7.5 50 5.4 NNW 19 28 10 15 1012.9 1012.9 0.0
28/04:30pm 19.0 14.8 8.4 50 5.5 N 20 28 11 15 1012.9 1012.9 0.0
28/04:00pm 19.4 13.7 8.4 49 5.7 N 28 41 15 22 1013.0 1013.0 0.0
28/03:30pm 20.1 13.7 7.1 43 6.6 NNW 30 50 16 27 1013.1 1013.1 0.0
28/03:05pm 20.7 13.8 6.3 39 7.2 NW 32 50 17 27 1013.2 1013.2 0.0
28/03:00pm 20.8 14.0 6.7 40 7.1 NNW 32 46 17 25 1013.3 1013.3 0.0
28/02:30pm 20.8 12.9 6.0 38 7.4 NNW 37 50 20 27 1013.4 1013.4 0.0
28/02:00pm 21.2 14.8 7.1 40 7.2 NNW 30 46 16 25 1013.5 1013.5 0.0
28/01:34pm 21.0 14.7 7.3 41 7.0 NNW 30 50 16 27 1013.6 1013.6 0.0
28/01:30pm 21.0 15.3 8.3 44 6.6 NNW 28 41 15 22 1013.8 1013.8 0.0
28/01:00pm 20.2 14.5 8.5 47 6.1 N 28 39 15 21 1014.0 1014.0 0.0
28/12:30pm 19.9 13.4 8.3 47 6.0 NNW 32 44 17 24 1014.4 1014.4 0.0
28/12:00pm 17.3 12.7 10.9 66 3.4 N 26 35 14 19 1015.2 1015.2 0.0
28/11:30am 16.9 12.3 9.6 62 3.8 N 24 33 13 18 1015.8 1015.8 0.0
28/11:00am 16.4 12.7 10.3 67 3.2 N 20 32 11 17 1016.5 1016.5 0.0
28/10:30am 15.4 10.9 10.2 71 2.7 NNE 24 33 13 18 1016.9 1016.9 0.0
28/10:00am 14.4 10.2 9.6 73 2.5 N 22 43 12 23 1017.2 1017.2 0.0
28/09:30am 14.2 9.6 9.8 75 2.3 N 24 35 13 19 1017.2 1017.2 0.0
28/09:00am 13.3 9.4 9.5 78 1.9 N 20 30 11 16 1017.3 1017.3 0.0
28/08:30am 13.0 9.3 9.6 80 1.7 NNW 19 28 10 15 1017.2 1017.2 0.0
28/08:00am 12.4 8.6 9.1 80 1.7 N 19 28 10 15 1017.2 1017.2 0.0
28/07:30am 12.5 8.5 9.0 79 1.8 N 20 28 11 15 1017.2 1017.2 0.0
28/07:00am 12.4 9.0 9.1 80 1.7 NNW 17 26 9 14 1017.1 1017.1 0.0
28/06:30am 12.1 8.3 8.9 81 1.6 NNW 19 28 10 15 1016.9 1016.9 0.0
28/06:00am 12.4 9.0 9.1 80 1.7 N 17 24 9 13 1016.5 1016.5 0.0
28/05:30am 11.2 8.0 8.6 84 1.3 N 15 20 8 11 1016.8 1016.8 0.0
28/05:00am 11.9 9.2 8.9 82 1.5 N 13 19 7 10 1016.9 1016.9 0.0

Latest Capital City Observations: Canberra | Sydney | Melbourne | Brisbane | Adelaide | Perth | Hobart | Darwin

Other Formats:

Comma delimited format used in spreadsheet applications
http://www.bom.gov.au/fwo/IDV60901/IDV60901.94865.axf

JavaScript Object Notation format (JSON) in row-major order
http://www.bom.gov.au/fwo/IDV60901/IDV60901.94865.json